Terminal Aerodrome Forecast
Issued by NWS Melbourne, FL

Home | Current Version | Previous Version | Text Only | Print | Product List | Glossary On
Versions: 1 2 3 4 5 6 7 8 9 10 11 12 13 14 15
113
FTUS42 KMLB 211736
TAFDAB
TAF
KDAB 211736Z 2118/2218 08016G24KT P6SM VCSH SCT025 BKN035
     FM220000 07010KT P6SM VCSH SCT025 BKN035
     FM220300 07008KT P6SM VCSH SCT015 BKN025
      TEMPO 2209/2212 BKN012
     FM221300 08013G19KT P6SM VCSH SCT025 BKN035=

USA.gov is the U.S. government's official web portal to all federal, state and local government web resources and services.